Detalii statie TARCEA AGRO TARCEA [0000197E]

Toti senzorii

Date Temperatura solului [C]Precipitatii [mm]Voltaj baterie [mV]Leaf Wetness [Min]HC Air temperature [C]HC Relative humidity [%]Punctul de roua [C]
medieminmaxsumaultimatimpmedieminmaxmediemediemin
2020-01-21 22:00:00 0 6806 -0.87 -0.96 -0.82 100 -0.7 -0.8
2020-01-21 23:00:00 0 6796 -0.73 -0.8 -0.64 100 -0.5 -0.7
2020-01-22 00:00:00 0 6786 -0.58 -0.62 -0.5 100 -0.4 -0.5
2020-01-22 01:00:00 0 6776 -0.48 -0.51 -0.45 100 -0.3 -0.4
2020-01-22 02:00:00 0 6786 -0.6 -0.72 -0.46 100 -0.4 -0.6
2020-01-22 03:00:00 0 6776 -0.91 -1 -0.71 100 -0.7 -0.9
2020-01-22 04:00:00 0 6776 -0.9 -0.99 -0.77 100 -0.7 -0.8
2020-01-22 05:00:00 0 6776 -0.75 -0.77 -0.72 100 -0.6 -0.6
2020-01-22 06:00:00 0 6776 -0.67 -0.73 -0.58 100 -0.5 -0.6
2020-01-22 07:00:00 0 6776 -0.56 -0.61 -0.54 100 -0.4 -0.5
2020-01-22 08:00:00 0 6766 -0.54 -0.58 -0.51 100 -0.4 -0.4
2020-01-22 09:00:00 0 6776 -0.6 -0.63 -0.59 100 -0.4 -0.5
2020-01-22 10:00:00 0 6776 -0.44 -0.57 -0.35 100 -0.2 -0.4
2020-01-22 11:00:00 0 6806 -0.37 -0.49 -0.25 100 -0.2 -0.3
2020-01-22 12:00:00 0 6806 -0.21 -0.26 -0.15 100 0 -0.1
2020-01-22 13:00:00 0 6826 -0.18 -0.25 -0.15 100 0 -0.1
2020-01-22 14:00:00 0 6844 -0.24 -0.35 -0.17 96.91 -0.6 -1.1
2020-01-22 15:00:00 0 6844 -0.2 -0.25 -0.17 95.66 -0.7 -0.9
2020-01-22 16:00:00 0 6776 -0.25 -0.3 -0.21 95.71 -0.8 -0.9
2020-01-22 17:00:00 0 6766 -0.39 -0.47 -0.31 97.51 -0.6 -0.8
2020-01-22 18:00:00 0 6766 -0.5 -0.56 -0.45 99.22 -0.5 -0.7
2020-01-22 19:00:00 0 6766 -0.48 -0.53 -0.44 99.67 -0.4 -0.6
2020-01-22 20:00:00 0 6776 -0.51 -0.59 -0.46 99.97 -0.3 -0.4
2020-01-22 21:00:00 0 6776 -0.52 -0.55 -0.49 99.97 -0.4 -0.5
2020-01-22 22:00:00 0 6766 -0.52 -0.55 -0.48 100 -0.3 -0.4
2020-01-22 23:00:00 0 6776 -0.56 -0.65 -0.51 100 -0.4 -0.5
2020-01-23 00:00:00 0 6766 -0.66 -0.69 -0.64 100 -0.5 -0.5
2020-01-23 01:00:00 0 6756 -0.67 -0.74 -0.61 100 -0.5 -0.6
2020-01-23 02:00:00 0 6766 -0.81 -0.92 -0.73 100 -0.6 -0.8
2020-01-23 03:00:00 0 6766 -1 -1.33 -0.87 100 -0.8 -1.2
2020-01-23 04:00:00 0 6766 -1.65 -1.81 -1.43 100 -1.5 -1.7
2020-01-23 05:00:00 0 6766 -1.67 -1.74 -1.59 100 -1.5 -1.6
2020-01-23 06:00:00 0 6756 -1.51 -1.59 -1.42 100 -1.3 -1.4
2020-01-23 07:00:00 0 6756 -1.84 -2.08 -1.44 100 -1.6 -1.9
2020-01-23 08:00:00 0 6756 -2.22 -2.47 -2.09 100 -2 -2.3
2020-01-23 09:00:00 0 6796 -2.7 -2.8 -2.54 100 -2.5 -2.7
2020-01-23 10:00:00 0 7050 -2.23 -2.61 -1.83 100 -2.1 -2.5
2020-01-23 11:00:00 0 7176 -1.1 -1.69 -0.45 100 -0.9 -1.5
2020-01-23 12:00:00 0 7158 0.18 -0.45 0.73 98.15 0 -0.3
2020-01-23 13:00:00 0 7148 1.47 0.91 2.07 93.15 0.3 0.2
2020-01-23 14:00:00 0 7148 2.75 1.96 3.38 86.53 0.5 0.1
2020-01-23 15:00:00 0 7118 3.66 3.44 3.85 81.41 0.6 0.3
2020-01-23 16:00:00 0 7098 3.69 3.37 3.9 80.08 0.4 0.1
2020-01-23 17:00:00 0 7020 2.19 0.84 3.32 89.61 0.5 0.3
2020-01-23 18:00:00 0 6972 0.1 -0.3 0.69 99.71 0 -0.2
2020-01-23 19:00:00 0 6932 -0.78 -0.93 -0.4 100 -0.6 -0.8
2020-01-23 20:00:00 0 6904 -1.05 -1.58 -0.82 100 -0.9 -1.4